Route Details

Aircraft Information
Group: European Fleet
Types: A30F, A31F, B738
Route Data
Distance: 281nm
Duration: 1h 00m
Origin METAR: EDDK 160150Z AUTO VRB02KT CAVOK 18/14 Q1007 NOSIG
Dest. METAR: LSGG 160120Z AUTO VRB01KT 9999 NCD 15/12 Q1011 NOSIG
Freight Data
(for Aug 16, 2022)
Load Factor:
53%
Manifested Cargo: 55,424lbs
Financial History
Total Freight: 325,351lbs
Average Load: 0lbs/flt
Fuel Used: 62,542lbs
Avg. Fuel Used: 0lbs/flt
Fuel Expense: $27,952
Avg. Fuel Expense: $0
Avg. Fuel Cost: $0/lbs
Total Gross Income: $708,003
Pilot Pay: $1,544
Total Expenses: $115,654
Total Revenue: $562,072
Average Revenue: $0

Capitol Logistics 505




EDDK
Cologne Bonn Airport
Cologne, DE
LSGG
Geneve-Cointrin Airport
Geneva, CH